SBRF/REC METAR and TAF weather

Enter ICAO airport designator
Station Type Date Time Source
SBRF METAR 2019/08/23 15:00 UTC NOAA

SBRF 231500Z 16013KT 9999 BKN025 27/21 Q1017


Station Type Date Time Source
SBRF Decoded METAR 2019/08/23 15:00 UTC NOAA

Station name not available
Aug 23, 2019 - 11:00 AM EDT / 2019.08.23 1500 UTC
Wind: from the SSE (160 degrees) at 15 MPH (13 KT):0
Visibility: greater than 7 mile(s):0
Sky conditions: mostly cloudy
Temperature: 80 F (27 C)
Dew Point: 69 F (21 C)
Relative Humidity: 69%
Pressure (altimeter): 30.03 in. Hg (1017 hPa)
ob: SBRF 231500Z 16013KT 9999 BKN025 27/21 Q1017
cycle: 15

Station Type Date Time Source
SBRF TAF 2019/08/23 12:36 UTC NOAA

TAF SBRF 231000Z 2312/2412 15011KT 8000 SCT015 TX26/2317Z TN21/2408Z
BECMG 2312/2314 SCT025
BECMG 2318/2320 SCT015 PROB30
TEMPO 2402/2404 4000 RA SCT010 BKN018
RMK PFD

Example: see airport list